sensor_id;sensor_type;location;lat;lon;timestamp;pressure;altitude;pressure_sealevel;temperature;humidity
71057;BME280;58380;48.312;9.246;2023-03-04T10:37:43;93935.09;;;1.41;90.69
71057;BME280;58380;48.312;9.246;2023-03-04T10:40:23;93948.88;;;1.41;89.95
71057;BME280;58380;48.312;9.246;2023-03-04T10:42:50;93937.03;;;1.32;89.70
71057;BME280;58380;48.312;9.246;2023-03-04T10:45:23;93946.72;;;1.45;92.68
71057;BME280;58380;48.312;9.246;2023-03-04T10:47:53;93944.34;;;1.57;89.83
71057;BME280;58380;48.312;9.246;2023-03-04T10:50:25;93930.75;;;1.61;91.48
71057;BME280;58380;48.312;9.246;2023-03-04T10:52:53;93938.13;;;1.51;88.53
71057;BME280;58380;48.312;9.246;2023-03-04T10:55:26;93897.22;;;1.25;90.29
71057;BME280;58380;48.312;9.246;2023-03-04T10:57:55;93886.72;;;1.05;89.20
71057;BME280;58380;48.312;9.246;2023-03-04T11:00:37;93909.00;;;1.21;90.48
71057;BME280;58380;48.312;9.246;2023-03-04T11:05:48;93913.06;;;1.37;90.91
71057;BME280;58380;48.312;9.246;2023-03-04T11:08:19;93934.16;;;1.55;90.96
71057;BME280;58380;48.312;9.246;2023-03-04T11:10:47;93895.28;;;1.47;92.64
71057;BME280;58380;48.312;9.246;2023-03-04T11:13:20;93928.78;;;1.70;91.93
71057;BME280;58380;48.312;9.246;2023-03-04T11:16:00;93917.59;;;1.76;91.24
71057;BME280;58380;48.312;9.246;2023-03-04T11:18:43;93910.78;;;1.75;90.37
71057;BME280;58380;48.312;9.246;2023-03-04T11:21:20;93914.81;;;1.78;91.51
71057;BME280;58380;48.312;9.246;2023-03-04T11:24:12;93925.25;;;1.91;89.78
71057;BME280;58380;48.312;9.246;2023-03-04T11:26:54;93915.22;;;1.94;88.40
71057;BME280;58380;48.312;9.246;2023-03-04T11:29:37;93928.47;;;1.93;87.00
71057;BME280;58380;48.312;9.246;2023-03-04T11:32:13;93922.94;;;1.61;87.83
71057;BME280;58380;48.312;9.246;2023-03-04T11:34:47;93909.09;;;1.47;88.66
71057;BME280;58380;48.312;9.246;2023-03-04T11:37:32;93917.44;;;1.36;88.57
71057;BME280;58380;48.312;9.246;2023-03-04T11:40:22;93922.13;;;1.47;90.41
71057;BME280;58380;48.312;9.246;2023-03-04T11:43:06;93857.75;;;1.15;90.15
71057;BME280;58380;48.312;9.246;2023-03-04T11:49:23;93912.88;;;1.38;89.48
71057;BME280;58380;48.312;9.246;2023-03-04T11:52:33;93910.53;;;1.50;90.94
71057;BME280;58380;48.312;9.246;2023-03-04T11:55:36;93897.03;;;1.40;89.26
71057;BME280;58380;48.312;9.246;2023-03-04T11:58:22;93888.84;;;1.36;90.25
71057;BME280;58380;48.312;9.246;2023-03-04T12:01:18;93897.03;;;1.40;88.55
71057;BME280;58380;48.312;9.246;2023-03-04T12:04:26;93869.63;;;1.31;91.43
71057;BME280;58380;48.312;9.246;2023-03-04T12:18:57;93856.09;;;1.62;89.08
71057;BME280;58380;48.312;9.246;2023-03-04T12:24:39;93868.53;;;1.80;88.22
71057;BME280;58380;48.312;9.246;2023-03-04T12:27:35;93864.97;;;1.87;89.37
71057;BME280;58380;48.312;9.246;2023-03-04T12:30:38;93855.34;;;1.94;89.80
71057;BME280;58380;48.312;9.246;2023-03-04T12:33:39;93821.31;;;1.76;88.94
71057;BME280;58380;48.312;9.246;2023-03-04T12:39:12;93856.56;;;1.85;84.83
71057;BME280;58380;48.312;9.246;2023-03-04T12:45:28;93852.63;;;1.35;85.73
71057;BME280;58380;48.312;9.246;2023-03-04T12:48:52;93861.25;;;1.42;85.79
71057;BME280;58380;48.312;9.246;2023-03-04T12:54:40;93831.41;;;1.31;85.98
71057;BME280;58380;48.312;9.246;2023-03-04T12:57:14;93844.16;;;1.13;85.89
71057;BME280;58380;48.312;9.246;2023-03-04T13:03:00;93845.13;;;0.63;87.92
71057;BME280;58380;48.312;9.246;2023-03-04T13:05:42;93813.38;;;0.33;88.79
71057;BME280;58380;48.312;9.246;2023-03-04T13:11:00;93819.19;;;0.70;90.76
71057;BME280;58380;48.312;9.246;2023-03-04T13:14:06;93849.06;;;0.94;88.11
71057;BME280;58380;48.312;9.246;2023-03-04T13:16:53;93795.63;;;0.78;88.89
71057;BME280;58380;48.312;9.246;2023-03-04T13:19:41;93856.09;;;1.00;88.59
71057;BME280;58380;48.312;9.246;2023-03-04T13:35:55;93845.03;;;0.85;86.15
71057;BME280;58380;48.312;9.246;2023-03-04T13:43:46;93839.72;;;1.68;87.40
71057;BME280;58380;48.312;9.246;2023-03-04T13:51:34;93838.34;;;2.25;84.25
71057;BME280;58380;48.312;9.246;2023-03-04T13:56:29;93830.53;;;2.05;83.86
71057;BME280;58380;48.312;9.246;2023-03-04T14:04:26;93836.28;;;1.61;84.28
71057;BME280;58380;48.312;9.246;2023-03-04T14:06:53;93798.63;;;1.37;84.66
71057;BME280;58380;48.312;9.246;2023-03-04T14:09:25;93806.03;;;1.33;84.78
71057;BME280;58380;48.312;9.246;2023-03-04T14:12:00;93818.06;;;1.47;84.48
71057;BME280;58380;48.312;9.246;2023-03-04T14:14:31;93800.22;;;1.31;84.41
71057;BME280;58380;48.312;9.246;2023-03-04T14:17:16;93826.03;;;1.33;82.54
71057;BME280;58380;48.312;9.246;2023-03-04T14:19:45;93821.56;;;1.13;83.68
71057;BME280;58380;48.312;9.246;2023-03-04T14:22:30;93818.16;;;1.19;84.86
71057;BME280;58380;48.312;9.246;2023-03-04T14:25:00;93795.53;;;1.06;85.83
71057;BME280;58380;48.312;9.246;2023-03-04T14:27:30;93820.06;;;1.45;85.46
71057;BME280;58380;48.312;9.246;2023-03-04T14:30:04;93804.44;;;1.52;83.45
71057;BME280;58380;48.312;9.246;2023-03-04T14:32:32;93802.47;;;1.47;81.79
71057;BME280;58380;48.312;9.246;2023-03-04T14:35:02;93817.06;;;1.55;82.90
71057;BME280;58380;48.312;9.246;2023-03-04T14:37:37;93749.22;;;1.30;83.71
71057;BME280;58380;48.312;9.246;2023-03-04T14:40:39;93799.88;;;1.74;81.94
71057;BME280;58380;48.312;9.246;2023-03-04T14:45:44;93795.09;;;1.91;78.91
71057;BME280;58380;48.312;9.246;2023-03-04T14:48:44;93783.28;;;1.75;79.72
71057;BME280;58380;48.312;9.246;2023-03-04T14:51:39;93790.47;;;1.93;80.48
71057;BME280;58380;48.312;9.246;2023-03-04T14:54:39;93785.47;;;2.05;79.84
71057;BME280;58380;48.312;9.246;2023-03-04T14:59:43;93787.28;;;2.11;78.64
71057;BME280;58380;48.312;9.246;2023-03-04T15:02:28;93789.47;;;1.94;77.24
71057;BME280;58380;48.312;9.246;2023-03-04T15:05:07;93784.25;;;1.94;77.46
71057;BME280;58380;48.312;9.246;2023-03-04T15:07:37;93788.47;;;1.88;78.05
71057;BME280;58380;48.312;9.246;2023-03-04T15:10:07;93790.09;;;2.03;78.67
71057;BME280;58380;48.312;9.246;2023-03-04T15:12:37;93724.41;;;1.61;77.01
71057;BME280;58380;48.312;9.246;2023-03-04T15:15:29;93772.66;;;1.83;76.90
71057;BME280;58380;48.312;9.246;2023-03-04T15:18:01;93779.66;;;2.03;77.41
71057;BME280;58380;48.312;9.246;2023-03-04T15:20:39;93733.03;;;1.61;75.80
71057;BME280;58380;48.312;9.246;2023-03-04T15:23:05;93745.41;;;1.79;76.21
71057;BME280;58380;48.312;9.246;2023-03-04T15:25:38;93777.69;;;1.85;74.54
71057;BME280;58380;48.312;9.246;2023-03-04T15:28:05;93771.06;;;1.89;75.70
71057;BME280;58380;48.312;9.246;2023-03-04T15:30:41;93779.03;;;2.14;76.12
71057;BME280;58380;48.312;9.246;2023-03-04T15:33:09;93781.63;;;2.34;76.54
71057;BME280;58380;48.312;9.246;2023-03-04T15:35:36;93760.63;;;2.09;75.18
71057;BME280;58380;48.312;9.246;2023-03-04T15:38:05;93792.25;;;2.26;75.86
71057;BME280;58380;48.312;9.246;2023-03-04T15:40:35;93755.63;;;2.07;74.44
71057;BME280;58380;48.312;9.246;2023-03-04T15:43:04;93767.84;;;2.07;75.02
71057;BME280;58380;48.312;9.246;2023-03-04T15:45:33;93760.63;;;2.09;74.03
71057;BME280;58380;48.312;9.246;2023-03-04T15:48:04;93775.66;;;2.20;73.59
71057;BME280;58380;48.312;9.246;2023-03-04T15:50:39;93777.06;;;2.03;74.06
71057;BME280;58380;48.312;9.246;2023-03-04T15:53:13;93782.28;;;1.96;74.18
71057;BME280;58380;48.312;9.246;2023-03-04T15:55:44;93763.03;;;1.50;74.88
71057;BME280;58380;48.312;9.246;2023-03-04T15:58:11;93735.56;;;1.21;75.51
71057;BME280;58380;48.312;9.246;2023-03-04T16:00:38;93783.84;;;1.64;75.60
71057;BME280;58380;48.312;9.246;2023-03-04T16:03:03;93760.63;;;1.49;75.87
71057;BME280;58380;48.312;9.246;2023-03-04T16:05:37;93789.22;;;1.36;76.30
71057;BME280;58380;48.312;9.246;2023-03-04T16:08:03;93772.34;;;1.12;77.74
71057;BME280;58380;48.312;9.246;2023-03-04T16:10:29;93785.97;;;1.14;78.54
71057;BME280;58380;48.312;9.246;2023-03-04T16:12:55;93785.84;;;0.87;79.88
71057;BME280;58380;48.312;9.246;2023-03-04T16:15:23;93792.09;;;0.93;80.04
71057;BME280;58380;48.312;9.246;2023-03-04T16:17:51;93763.00;;;0.69;79.94
71057;BME280;58380;48.312;9.246;2023-03-04T16:20:24;93778.59;;;0.62;79.98
71057;BME280;58380;48.312;9.246;2023-03-04T16:22:59;93774.94;;;0.57;80.92
71057;BME280;58380;48.312;9.246;2023-03-04T16:25:27;93789.22;;;0.39;80.80
71057;BME280;58380;48.312;9.246;2023-03-04T16:27:53;93795.00;;;0.07;82.11
71057;BME280;58380;48.312;9.246;2023-03-04T16:30:26;93769.94;;;-0.14;83.10
71057;BME280;58380;48.312;9.246;2023-03-04T16:32:52;93781.66;;;-0.18;83.54
71057;BME280;58380;48.312;9.246;2023-03-04T16:35:19;93801.16;;;-0.23;83.51
71057;BME280;58380;48.312;9.246;2023-03-04T16:37:45;93802.94;;;-0.30;84.18
71057;BME280;58380;48.312;9.246;2023-03-04T16:40:13;93790.59;;;-0.49;84.75
71057;BME280;58380;48.312;9.246;2023-03-04T16:42:42;93779.19;;;-0.55;85.21
71057;BME280;58380;48.312;9.246;2023-03-04T16:45:15;93795.91;;;-0.57;84.44
71057;BME280;58380;48.312;9.246;2023-03-04T16:47:45;93800.94;;;-0.71;84.77
71057;BME280;58380;48.312;9.246;2023-03-04T16:50:15;93804.66;;;-0.80;85.59
71057;BME280;58380;48.312;9.246;2023-03-04T16:52:48;93814.16;;;-0.87;86.18
71057;BME280;58380;48.312;9.246;2023-03-04T16:55:18;93809.63;;;-0.78;86.38
71057;BME280;58380;48.312;9.246;2023-03-04T16:57:52;93797.69;;;-0.79;85.88
71057;BME280;58380;48.312;9.246;2023-03-04T17:00:20;93767.63;;;-1.10;86.44
71057;BME280;58380;48.312;9.246;2023-03-04T17:02:52;93781.59;;;-1.11;87.02
71057;BME280;58380;48.312;9.246;2023-03-04T17:05:24;93805.53;;;-1.09;87.20
71057;BME280;58380;48.312;9.246;2023-03-04T17:07:51;93797.69;;;-1.45;88.26
71057;BME280;58380;48.312;9.246;2023-03-04T17:10:17;93778.78;;;-1.61;88.96
71057;BME280;58380;48.312;9.246;2023-03-04T17:12:42;93794.84;;;-1.50;88.50
71057;BME280;58380;48.312;9.246;2023-03-04T17:15:12;93810.22;;;-1.49;89.18
71057;BME280;58380;48.312;9.246;2023-03-04T17:17:40;93816.03;;;-1.47;89.35
71057;BME280;58380;48.312;9.246;2023-03-04T17:20:07;93819.50;;;-1.40;89.04
71057;BME280;58380;48.312;9.246;2023-03-04T17:22:34;93820.72;;;-1.36;89.77
71057;BME280;58380;48.312;9.246;2023-03-04T17:25:00;93828.69;;;-1.37;89.13
71057;BME280;58380;48.312;9.246;2023-03-04T17:27:27;93823.97;;;-1.48;89.43
71057;BME280;58380;48.312;9.246;2023-03-04T17:29:53;93817.09;;;-1.56;89.76
71057;BME280;58380;48.312;9.246;2023-03-04T17:32:19;93810.03;;;-1.62;89.97
71057;BME280;58380;48.312;9.246;2023-03-04T17:34:45;93834.31;;;-1.63;90.61
71057;BME280;58380;48.312;9.246;2023-03-04T17:37:11;93819.03;;;-1.88;91.37
71057;BME280;58380;48.312;9.246;2023-03-04T17:39:37;93831.28;;;-1.82;92.15
71057;BME280;58380;48.312;9.246;2023-03-04T17:42:03;93850.34;;;-1.68;91.98
71057;BME280;58380;48.312;9.246;2023-03-04T17:44:30;93846.97;;;-1.68;92.12
71057;BME280;58380;48.312;9.246;2023-03-04T17:46:55;93840.91;;;-1.76;92.12
71057;BME280;58380;48.312;9.246;2023-03-04T17:49:22;93846.53;;;-1.72;92.44
71057;BME280;58380;48.312;9.246;2023-03-04T17:51:48;93827.25;;;-1.84;92.38
71057;BME280;58380;48.312;9.246;2023-03-04T17:54:14;93809.94;;;-1.84;92.41
71057;BME280;58380;48.312;9.246;2023-03-04T17:56:40;93836.34;;;-1.74;92.21
71057;BME280;58380;48.312;9.246;2023-03-04T17:59:10;93853.47;;;-1.73;92.96
71057;BME280;58380;48.312;9.246;2023-03-04T18:01:38;93824.81;;;-1.86;93.45
71057;BME280;58380;48.312;9.246;2023-03-04T18:04:04;93843.75;;;-1.70;93.20
71057;BME280;58380;48.312;9.246;2023-03-04T18:06:30;93845.19;;;-1.68;93.15
71057;BME280;58380;48.312;9.246;2023-03-04T18:08:55;93844.38;;;-1.68;92.88
71057;BME280;58380;48.312;9.246;2023-03-04T18:11:22;93835.72;;;-1.76;93.23
71057;BME280;58380;48.312;9.246;2023-03-04T18:13:49;93833.50;;;-1.79;93.29
71057;BME280;58380;48.312;9.246;2023-03-04T18:16:15;93849.66;;;-1.77;93.53
71057;BME280;58380;48.312;9.246;2023-03-04T18:18:47;93802.56;;;-2.10;93.64
71057;BME280;58380;48.312;9.246;2023-03-04T18:21:17;93826.09;;;-1.82;93.90
71057;BME280;58380;48.312;9.246;2023-03-04T18:23:44;93840.25;;;-1.78;94.40
71057;BME280;58380;48.312;9.246;2023-03-04T18:26:10;93810.81;;;-1.91;94.44
71057;BME280;58380;48.312;9.246;2023-03-04T18:28:37;93841.53;;;-1.74;94.15
71057;BME280;58380;48.312;9.246;2023-03-04T18:31:03;93824.13;;;-1.94;94.31
71057;BME280;58380;48.312;9.246;2023-03-04T18:33:30;93835.91;;;-1.77;94.70
71057;BME280;58380;48.312;9.246;2023-03-04T18:35:57;93855.72;;;-1.69;94.40
71057;BME280;58380;48.312;9.246;2023-03-04T18:38:33;93812.78;;;-1.93;94.38
71057;BME280;58380;48.312;9.246;2023-03-04T18:41:00;93849.56;;;-1.68;94.25
71057;BME280;58380;48.312;9.246;2023-03-04T18:43:28;93840.47;;;-1.79;94.81
71057;BME280;58380;48.312;9.246;2023-03-04T18:46:04;93852.69;;;-1.73;94.94
71057;BME280;58380;48.312;9.246;2023-03-04T18:48:38;93833.13;;;-1.76;94.59
71057;BME280;58380;48.312;9.246;2023-03-04T18:51:09;93826.09;;;-1.82;94.84
71057;BME280;58380;48.312;9.246;2023-03-04T18:53:34;93820.00;;;-1.89;94.93
71057;BME280;58380;48.312;9.246;2023-03-04T18:56:05;93810.72;;;-1.98;95.33
71057;BME280;58380;48.312;9.246;2023-03-04T18:58:35;93824.66;;;-1.84;95.30
71057;BME280;58380;48.312;9.246;2023-03-04T19:01:06;93811.19;;;-1.94;95.13
71057;BME280;58380;48.312;9.246;2023-03-04T19:03:35;93770.03;;;-2.19;94.95
71057;BME280;58380;48.312;9.246;2023-03-04T19:06:03;93824.41;;;-1.75;95.16
71057;BME280;58380;48.312;9.246;2023-03-04T19:08:30;93828.16;;;-1.77;94.69
71057;BME280;58380;48.312;9.246;2023-03-04T19:10:55;93810.91;;;-1.85;94.72
71057;BME280;58380;48.312;9.246;2023-03-04T19:13:21;93844.50;;;-1.62;94.13
71057;BME280;58380;48.312;9.246;2023-03-04T19:15:48;93837.06;;;-1.65;94.35
71057;BME280;58380;48.312;9.246;2023-03-04T19:18:14;93838.78;;;-1.72;93.94
71057;BME280;58380;48.312;9.246;2023-03-04T19:20:40;93827.78;;;-1.74;93.88
71057;BME280;58380;48.312;9.246;2023-03-04T19:23:07;93839.94;;;-1.75;93.89
71057;BME280;58380;48.312;9.246;2023-03-04T19:25:36;93851.78;;;-1.65;93.82
71057;BME280;58380;48.312;9.246;2023-03-04T19:28:02;93854.56;;;-1.67;93.70
71057;BME280;58380;48.312;9.246;2023-03-04T19:30:28;93828.69;;;-1.82;93.72
71057;BME280;58380;48.312;9.246;2023-03-04T19:32:54;93850.00;;;-1.65;93.94
71057;BME280;58380;48.312;9.246;2023-03-04T19:35:20;93816.34;;;-1.94;94.08
71057;BME280;58380;48.312;9.246;2023-03-04T19:37:45;93835.72;;;-1.76;94.06
71057;BME280;58380;48.312;9.246;2023-03-04T19:40:11;93790.75;;;-2.04;93.84
71057;BME280;58380;48.312;9.246;2023-03-04T19:42:37;93838.16;;;-1.74;94.03
71057;BME280;58380;48.312;9.246;2023-03-04T19:45:03;93854.38;;;-1.65;94.10
71057;BME280;58380;48.312;9.246;2023-03-04T19:47:35;93840.38;;;-1.71;94.04
71057;BME280;58380;48.312;9.246;2023-03-04T19:50:03;93852.16;;;-1.68;94.25
71057;BME280;58380;48.312;9.246;2023-03-04T19:52:34;93862.94;;;-1.65;94.03
71057;BME280;58380;48.312;9.246;2023-03-04T19:55:00;93853.41;;;-1.64;94.05
71057;BME280;58380;48.312;9.246;2023-03-04T19:57:26;93825.91;;;-1.80;94.03
71057;BME280;58380;48.312;9.246;2023-03-04T19:59:51;93844.81;;;-1.65;94.03
71057;BME280;58380;48.312;9.246;2023-03-04T20:02:17;93848.25;;;-1.64;93.66
71057;BME280;58380;48.312;9.246;2023-03-04T20:04:42;93846.56;;;-1.57;93.36
71057;BME280;58380;48.312;9.246;2023-03-04T20:07:08;93819.03;;;-1.73;93.23
71057;BME280;58380;48.312;9.246;2023-03-04T20:09:34;93847.63;;;-1.52;92.92
71057;BME280;58380;48.312;9.246;2023-03-04T20:12:02;93754.16;;;-2.01;92.20
71057;BME280;58380;48.312;9.246;2023-03-04T20:14:31;93848.41;;;-1.51;92.51
71057;BME280;58380;48.312;9.246;2023-03-04T20:17:00;93853.44;;;-1.49;92.68
71057;BME280;58380;48.312;9.246;2023-03-04T20:19:29;93849.41;;;-1.52;92.69
71057;BME280;58380;48.312;9.246;2023-03-04T20:21:55;93836.63;;;-1.54;92.72
71057;BME280;58380;48.312;9.246;2023-03-04T20:24:22;93847.25;;;-1.48;93.22
71057;BME280;58380;48.312;9.246;2023-03-04T20:26:49;93852.69;;;-1.43;93.28
71057;BME280;58380;48.312;9.246;2023-03-04T20:29:15;93853.97;;;-1.39;93.27
71057;BME280;58380;48.312;9.246;2023-03-04T20:31:41;93826.13;;;-1.52;93.27
71057;BME280;58380;48.312;9.246;2023-03-04T20:34:09;93850.00;;;-1.35;93.13
71057;BME280;58380;48.312;9.246;2023-03-04T20:36:35;93848.06;;;-1.33;93.21
71057;BME280;58380;48.312;9.246;2023-03-04T20:39:05;93846.88;;;-1.31;93.60
71057;BME280;58380;48.312;9.246;2023-03-04T20:41:32;93849.69;;;-1.32;93.41
71057;BME280;58380;48.312;9.246;2023-03-04T20:43:59;93844.03;;;-1.36;93.59
71057;BME280;58380;48.312;9.246;2023-03-04T20:48:53;93854.66;;;-1.16;92.85
71057;BME280;58380;48.312;9.246;2023-03-04T20:51:19;93832.16;;;-1.30;92.74
71057;BME280;58380;48.312;9.246;2023-03-04T20:53:44;93769.81;;;-1.80;92.50
71057;BME280;58380;48.312;9.246;2023-03-04T20:56:10;93820.72;;;-1.36;92.49
71057;BME280;58380;48.312;9.246;2023-03-04T20:58:35;93852.31;;;-1.11;92.29
71057;BME280;58380;48.312;9.246;2023-03-04T21:01:01;93842.69;;;-1.17;92.63
71057;BME280;58380;48.312;9.246;2023-03-04T21:03:26;93834.13;;;-1.17;92.35
71057;BME280;58380;48.312;9.246;2023-03-04T21:05:53;93824.56;;;-1.17;92.01
71057;BME280;58380;48.312;9.246;2023-03-04T21:08:18;93837.16;;;-1.14;91.84
71057;BME280;58380;48.312;9.246;2023-03-04T21:10:44;93840.38;;;-1.12;92.36
71057;BME280;58380;48.312;9.246;2023-03-04T21:13:12;93789.66;;;-1.36;92.26
71057;BME280;58380;48.312;9.246;2023-03-04T21:15:46;93819.56;;;-1.18;92.08
71057;BME280;58380;48.312;9.246;2023-03-04T21:18:12;93805.63;;;-1.17;91.73
71057;BME280;58380;48.312;9.246;2023-03-04T21:20:38;93812.41;;;-1.16;91.35
71057;BME280;58380;48.312;9.246;2023-03-04T21:23:03;93835.69;;;-1.01;91.51
71057;BME280;58380;48.312;9.246;2023-03-04T21:25:29;93793.50;;;-1.32;91.92
71057;BME280;58380;48.312;9.246;2023-03-04T21:27:54;93829.00;;;-1.11;92.53
71057;BME280;58380;48.312;9.246;2023-03-04T21:30:20;93821.50;;;-1.20;92.24
71057;BME280;58380;48.312;9.246;2023-03-04T21:32:45;93810.63;;;-1.31;92.46
71057;BME280;58380;48.312;9.246;2023-03-04T21:35:12;93810.09;;;-1.26;92.89
71057;BME280;58380;48.312;9.246;2023-03-04T21:37:38;93789.50;;;-1.34;92.29
71057;BME280;58380;48.312;9.246;2023-03-04T21:40:08;93815.38;;;-1.19;92.48
71057;BME280;58380;48.312;9.246;2023-03-04T21:42:34;93804.50;;;-1.29;92.09
71057;BME280;58380;48.312;9.246;2023-03-04T21:44:59;93808.25;;;-1.32;92.01
71057;BME280;58380;48.312;9.246;2023-03-04T21:47:25;93804.22;;;-1.35;92.52
71057;BME280;58380;48.312;9.246;2023-03-04T21:49:50;93803.50;;;-1.28;92.83
71057;BME280;58380;48.312;9.246;2023-03-04T21:52:17;93800.00;;;-1.21;92.97
71057;BME280;58380;48.312;9.246;2023-03-04T21:54:43;93804.00;;;-1.18;91.90
71057;BME280;58380;48.312;9.246;2023-03-04T21:57:09;93793.88;;;-1.35;92.06
71057;BME280;58380;48.312;9.246;2023-03-04T21:59:36;93762.34;;;-1.53;92.14
71057;BME280;58380;48.312;9.246;2023-03-04T22:02:02;93764.41;;;-1.48;92.03
71057;BME280;58380;48.312;9.246;2023-03-04T22:04:27;93800.47;;;-1.17;92.00
71057;BME280;58380;48.312;9.246;2023-03-04T22:06:53;93759.22;;;-1.48;91.52
71057;BME280;58380;48.312;9.246;2023-03-04T22:09:18;93778.41;;;-1.43;91.74
71057;BME280;58380;48.312;9.246;2023-03-04T22:11:44;93781.72;;;-1.34;91.96
71057;BME280;58380;48.312;9.246;2023-03-04T22:14:10;93728.56;;;-1.66;92.12
71057;BME280;58380;48.312;9.246;2023-03-04T22:16:35;93787.53;;;-1.32;92.20
71057;BME280;58380;48.312;9.246;2023-03-04T22:19:02;93781.19;;;-1.29;92.34
71057;BME280;58380;48.312;9.246;2023-03-04T22:21:28;93775.00;;;-1.28;92.05
71057;BME280;58380;48.312;9.246;2023-03-04T22:23:54;93758.69;;;-1.29;92.16
71057;BME280;58380;48.312;9.246;2023-03-04T22:26:22;93776.44;;;-1.26;91.48
